Rp Zug — HE7351 — position and weather

sailwx.info

Track history (hours):
 
Tides and Currents Weather Stations Pressure Air Temp Water Temp Dewpoint Dewpoint Depression Visibility Wind Speed Wind Dir Waves Ship Positions

Rp Zug

Last reported at 2014-Dec-17 17:06 UTC. Time now 2014-Dec-17 21:42 UTC.
Position N 49°26' E 008°30'.

Type: Tanker. MMSI: 269057351.

Date/timePositionNaut miles runAvg speedWind from/ knotsBaromVisibWave heightAir tempDewpointWater temp
2014-Dec-17 17:06N 49°26' E 008°30'610.6
2014-Dec-17 16:34N 49°21' E 008°29'9 8.5
2014-Dec-17 15:34N 49°13' E 008°23'1111.1
2014-Dec-17 14:34N 49°02' E 008°18'1111.1
2014-Dec-17 13:33N 48°53' E 008°08'7 6.3
2014-Dec-17 12:28N 48°47' E 008°02'8 7.7
2014-Dec-17 11:25N 48°41' E 007°55'0 0.0
2014-Dec-16 13:31N 48°41' E 007°55'7 6.4
2014-Dec-16 12:26N 48°47' E 008°02'5 4.8
2014-Dec-16 11:26N 48°50' E 008°07'4 4.5
2014-Dec-16 10:33N 48°54' E 008°08'4 4.3
2014-Dec-16 09:33N 48°58' E 008°12'4 4.2
2014-Dec-16 08:33N 48°60' E 008°17'5 4.6
2014-Dec-16 07:33N 49°04' E 008°19'4 4.4
2014-Dec-16 06:34N 49°08' E 008°22'5 4.6
2014-Dec-16 05:33N 49°13' E 008°23'5 4.7
2014-Dec-16 04:31N 49°17' E 008°27'3 3.5
2014-Dec-16 03:32N 49°20' E 008°28'0 0.0
2014-Dec-14 16:33N 49°20' E 008°27'9 8.8
2014-Dec-14 15:33N 49°11' E 008°23'7 7.4
2014-Dec-14 14:33N 49°04' E 008°20'0 0.0
2014-Dec-14 13:33N 49°04' E 008°20'0 0.0
2014-Dec-14 12:33N 49°04' E 008°20'0 0.0
2014-Dec-14 11:33N 49°04' E 008°20'0 0.0
2014-Dec-14 10:33N 49°04' E 008°20'0 0.0
2014-Dec-14 09:33N 49°04' E 008°20'0 0.0
2014-Dec-14 08:33N 49°04' E 008°20'0 0.0
2014-Dec-14 07:33N 49°04' E 008°20'0 0.1
2014-Dec-14 06:33N 49°04' E 008°20'0 0.0
2014-Dec-14 05:33N 49°04' E 008°20'0 0.0
2014-Dec-14 04:33N 49°04' E 008°20'0 0.0
2014-Dec-14 03:33N 49°04' E 008°20'0 0.0
2014-Dec-14 02:33N 49°04' E 008°20'0 0.0
2014-Dec-14 01:33N 49°04' E 008°20'0 0.0
2014-Dec-14 00:33N 49°04' E 008°20'0 0.0
2014-Dec-13 23:33N 49°04' E 008°20'0 0.0
2014-Dec-13 22:33N 49°04' E 008°20'0 0.0
2014-Dec-13 21:33N 49°04' E 008°20'0 0.0
2014-Dec-13 20:33N 49°04' E 008°20'0 0.0
2014-Dec-13 19:33N 49°04' E 008°20'0 0.0
2014-Dec-13 18:33N 49°04' E 008°20'0 0.0
2014-Dec-13 17:33N 49°04' E 008°20'3 3.4
2014-Dec-13 16:33N 49°07' E 008°22'5 4.7
2014-Dec-13 15:33N 49°12' E 008°23'5 4.6
2014-Dec-13 14:33N 49°16' E 008°27'4 3.7
2014-Dec-13 13:33N 49°20' E 008°27'6 5.4
2014-Dec-13 12:32N 49°25' E 008°30'39 4.3
2014-Dec-13 03:33N 50°04' E 008°32'3 0.1
2014-Dec-12 09:32N 50°05' E 008°35'0 0.1
2014-Dec-12 08:28N 50°05' E 008°35'3 3.2
2014-Dec-12 07:33N 50°06' E 008°40'3 2.8
2014-Dec-12 06:33N 50°07' E 008°44'0 0.4
2014-Dec-12 05:33N 50°07' E 008°45'0 0.0
2014-Dec-12 04:33N 50°07' E 008°45'0 0.0
2014-Dec-12 03:33N 50°07' E 008°45'0 0.0
2014-Dec-12 02:33N 50°07' E 008°45'0 0.0
2014-Dec-12 01:33N 50°07' E 008°45'0 0.0
2014-Dec-12 00:33N 50°07' E 008°45'0 0.0
2014-Dec-11 23:33N 50°07' E 008°45'0 0.0
2014-Dec-11 22:33N 50°07' E 008°45'0 0.0
2014-Dec-11 21:33N 50°07' E 008°45'0 0.0
2014-Dec-11 20:33N 50°07' E 008°45'0 0.0
2014-Dec-11 19:33N 50°07' E 008°45'0 0.0
2014-Dec-11 18:33N 50°07' E 008°45'0 0.0
2014-Dec-11 17:33N 50°07' E 008°45'0 0.0
2014-Dec-11 16:33N 50°07' E 008°45'0 0.0
2014-Dec-11 15:33N 50°07' E 008°45'0 0.0
2014-Dec-11 14:33N 50°07' E 008°45'1 1.0
2014-Dec-11 13:33N 50°06' E 008°43'5 4.8
2014-Dec-11 12:33N 50°05' E 008°36'3 2.7
2014-Dec-11 11:23N 50°04' E 008°32'43 2.1
2014-Dec-10 14:30N 49°21' E 008°29'8 8.9
2014-Dec-10 13:33N 49°13' E 008°23'1211.5
2014-Dec-10 12:33N 49°02' E 008°18'1211.5
2014-Dec-10 11:32N 48°53' E 008°08'5 4.8
2014-Dec-10 10:33N 48°48' E 008°05'10 9.5
2014-Dec-10 09:32N 48°41' E 007°55'2 0.1
2014-Dec-09 06:27N 48°40' E 007°53'3 2.9
2014-Dec-09 05:33N 48°42' E 007°55'7 7.2
2014-Dec-09 04:33N 48°47' E 008°02'4 4.1
2014-Dec-09 03:30N 48°50' E 008°07'4 3.9
2014-Dec-09 02:33N 48°54' E 008°08'4 4.0
2014-Dec-09 01:34N 48°57' E 008°11'4 3.8
2014-Dec-09 00:33N 48°59' E 008°16'4 3.8
2014-Dec-08 23:33N 49°03' E 008°18'4 4.2
2014-Dec-08 22:33N 49°06' E 008°22'4 3.8
2014-Dec-08 21:33N 49°10' E 008°22'4 4.1
2014-Dec-08 20:33N 49°14' E 008°24'4 4.4
2014-Dec-08 19:33N 49°17' E 008°29'4 3.4
2014-Dec-08 18:31N 49°21' E 008°29'  
Track history (hours):
 
Tides and Currents Weather Stations Pressure Air Temp Water Temp Dewpoint Dewpoint Depression Visibility Wind Speed Wind Dir Waves Ship Positions

Rp Zug

Last reported at 2014-Dec-17 17:06 UTC. Time now 2014-Dec-17 21:42 UTC.
Position N 49°26' E 008°30'.

Type: Tanker. MMSI: 269057351.

Date/timePositionNaut miles runAvg speedWind from/ knotsBaromVisibWave heightAir tempDewpointWater temp
2014-Dec-17 17:06N 49°26' E 008°30'610.6
2014-Dec-17 16:34N 49°21' E 008°29'9 8.5
2014-Dec-17 15:34N 49°13' E 008°23'1111.1
2014-Dec-17 14:34N 49°02' E 008°18'1111.1
2014-Dec-17 13:33N 48°53' E 008°08'7 6.3
2014-Dec-17 12:28N 48°47' E 008°02'8 7.7
2014-Dec-17 11:25N 48°41' E 007°55'0 0.0
2014-Dec-16 13:31N 48°41' E 007°55'7 6.4
2014-Dec-16 12:26N 48°47' E 008°02'5 4.8
2014-Dec-16 11:26N 48°50' E 008°07'4 4.5
2014-Dec-16 10:33N 48°54' E 008°08'4 4.3
2014-Dec-16 09:33N 48°58' E 008°12'4 4.2
2014-Dec-16 08:33N 48°60' E 008°17'5 4.6
2014-Dec-16 07:33N 49°04' E 008°19'4 4.4
2014-Dec-16 06:34N 49°08' E 008°22'5 4.6
2014-Dec-16 05:33N 49°13' E 008°23'5 4.7
2014-Dec-16 04:31N 49°17' E 008°27'3 3.5
2014-Dec-16 03:32N 49°20' E 008°28'0 0.0
2014-Dec-14 16:33N 49°20' E 008°27'9 8.8
2014-Dec-14 15:33N 49°11' E 008°23'7 7.4
2014-Dec-14 14:33N 49°04' E 008°20'0 0.0
2014-Dec-14 13:33N 49°04' E 008°20'0 0.0
2014-Dec-14 12:33N 49°04' E 008°20'0 0.0
2014-Dec-14 11:33N 49°04' E 008°20'0 0.0
2014-Dec-14 10:33N 49°04' E 008°20'0 0.0
2014-Dec-14 09:33N 49°04' E 008°20'0 0.0
2014-Dec-14 08:33N 49°04' E 008°20'0 0.0
2014-Dec-14 07:33N 49°04' E 008°20'0 0.1
2014-Dec-14 06:33N 49°04' E 008°20'0 0.0
2014-Dec-14 05:33N 49°04' E 008°20'0 0.0
2014-Dec-14 04:33N 49°04' E 008°20'0 0.0
2014-Dec-14 03:33N 49°04' E 008°20'0 0.0
2014-Dec-14 02:33N 49°04' E 008°20'0 0.0
2014-Dec-14 01:33N 49°04' E 008°20'0 0.0
2014-Dec-14 00:33N 49°04' E 008°20'0 0.0
2014-Dec-13 23:33N 49°04' E 008°20'0 0.0
2014-Dec-13 22:33N 49°04' E 008°20'0 0.0
2014-Dec-13 21:33N 49°04' E 008°20'0 0.0
2014-Dec-13 20:33N 49°04' E 008°20'0 0.0
2014-Dec-13 19:33N 49°04' E 008°20'0 0.0
2014-Dec-13 18:33N 49°04' E 008°20'0 0.0
2014-Dec-13 17:33N 49°04' E 008°20'3 3.4
2014-Dec-13 16:33N 49°07' E 008°22'5 4.7
2014-Dec-13 15:33N 49°12' E 008°23'5 4.6
2014-Dec-13 14:33N 49°16' E 008°27'4 3.7
2014-Dec-13 13:33N 49°20' E 008°27'6 5.4
2014-Dec-13 12:32N 49°25' E 008°30'39 4.3
2014-Dec-13 03:33N 50°04' E 008°32'3 0.1
2014-Dec-12 09:32N 50°05' E 008°35'0 0.1
2014-Dec-12 08:28N 50°05' E 008°35'3 3.2
2014-Dec-12 07:33N 50°06' E 008°40'3 2.8
2014-Dec-12 06:33N 50°07' E 008°44'0 0.4
2014-Dec-12 05:33N 50°07' E 008°45'0 0.0
2014-Dec-12 04:33N 50°07' E 008°45'0 0.0
2014-Dec-12 03:33N 50°07' E 008°45'0 0.0
2014-Dec-12 02:33N 50°07' E 008°45'0 0.0
2014-Dec-12 01:33N 50°07' E 008°45'0 0.0
2014-Dec-12 00:33N 50°07' E 008°45'0 0.0
2014-Dec-11 23:33N 50°07' E 008°45'0 0.0
2014-Dec-11 22:33N 50°07' E 008°45'0 0.0
2014-Dec-11 21:33N 50°07' E 008°45'0 0.0
2014-Dec-11 20:33N 50°07' E 008°45'0 0.0
2014-Dec-11 19:33N 50°07' E 008°45'0 0.0
2014-Dec-11 18:33N 50°07' E 008°45'0 0.0
2014-Dec-11 17:33N 50°07' E 008°45'0 0.0
2014-Dec-11 16:33N 50°07' E 008°45'0 0.0
2014-Dec-11 15:33N 50°07' E 008°45'0 0.0
2014-Dec-11 14:33N 50°07' E 008°45'1 1.0
2014-Dec-11 13:33N 50°06' E 008°43'5 4.8
2014-Dec-11 12:33N 50°05' E 008°36'3 2.7
2014-Dec-11 11:23N 50°04' E 008°32'43 2.1
2014-Dec-10 14:30N 49°21' E 008°29'8 8.9
2014-Dec-10 13:33N 49°13' E 008°23'1211.5
2014-Dec-10 12:33N 49°02' E 008°18'1211.5
2014-Dec-10 11:32N 48°53' E 008°08'5 4.8
2014-Dec-10 10:33N 48°48' E 008°05'10 9.5
2014-Dec-10 09:32N 48°41' E 007°55'2 0.1
2014-Dec-09 06:27N 48°40' E 007°53'3 2.9
2014-Dec-09 05:33N 48°42' E 007°55'7 7.2
2014-Dec-09 04:33N 48°47' E 008°02'4 4.1
2014-Dec-09 03:30N 48°50' E 008°07'4 3.9
2014-Dec-09 02:33N 48°54' E 008°08'4 4.0
2014-Dec-09 01:34N 48°57' E 008°11'4 3.8
2014-Dec-09 00:33N 48°59' E 008°16'4 3.8
2014-Dec-08 23:33N 49°03' E 008°18'4 4.2
2014-Dec-08 22:33N 49°06' E 008°22'4 3.8
2014-Dec-08 21:33N 49°10' E 008°22'4 4.1
2014-Dec-08 20:33N 49°14' E 008°24'4 4.4
2014-Dec-08 19:33N 49°17' E 008°29'4 3.4
2014-Dec-08 18:31N 49°21' E 008°29'  

Dump ship's entire track history